createdAt,value
2018-11-14T00:02:28.068Z,11.27
2018-11-14T00:04:56.292Z,11.33
2018-11-14T00:07:24.425Z,12.03
2018-11-14T00:09:52.603Z,11.20
2018-11-14T00:12:20.764Z,12.40
2018-11-14T00:14:48.899Z,12.03
2018-11-14T00:17:17.040Z,13.17
2018-11-14T00:19:45.215Z,12.87
2018-11-14T00:22:13.355Z,12.47
2018-11-14T00:24:41.568Z,12.30
2018-11-14T00:27:09.721Z,12.03
2018-11-14T00:29:37.916Z,13.05
2018-11-14T00:32:06.069Z,12.47
2018-11-14T00:34:34.263Z,13.08
2018-11-14T00:37:02.384Z,14.00
2018-11-14T00:39:30.551Z,14.47
2018-11-14T00:41:59.177Z,14.40
2018-11-14T00:44:27.328Z,14.23
2018-11-14T00:46:55.500Z,14.23
2018-11-14T00:49:23.635Z,14.53
2018-11-14T00:51:52.240Z,13.40
2018-11-14T00:54:20.407Z,14.63
2018-11-14T00:56:48.565Z,15.23
2018-11-14T00:59:16.757Z,14.97
2018-11-14T01:01:45.076Z,15.30
2018-11-14T01:04:13.112Z,15.10
2018-11-14T01:06:41.249Z,14.30
2018-11-14T01:09:11.012Z,14.47
2018-11-14T01:11:39.148Z,14.90
2018-11-14T01:14:08.060Z,14.57
2018-11-14T01:16:37.048Z,15.10
2018-11-14T01:19:05.596Z,15.63
2018-11-14T01:21:33.801Z,15.68
2018-11-14T01:24:01.912Z,15.70
2018-11-14T01:26:30.049Z,14.77
2018-11-14T01:28:58.271Z,15.17
2018-11-14T01:31:26.413Z,15.53
2018-11-14T01:33:54.582Z,14.90
2018-11-14T01:36:22.717Z,16.10
2018-11-14T01:38:51.040Z,15.27
2018-11-14T01:41:19.238Z,15.87
2018-11-14T01:43:47.409Z,15.40
2018-11-14T01:46:15.552Z,16.00
2018-11-14T01:48:43.688Z,15.20
2018-11-14T01:51:11.911Z,16.20
2018-11-14T01:53:40.148Z,15.05
2018-11-14T01:56:08.357Z,16.30
2018-11-14T01:58:36.539Z,16.37
2018-11-14T02:01:04.898Z,16.70
2018-11-14T02:03:33.023Z,16.13
2018-11-14T02:06:01.179Z,15.43
2018-11-14T02:08:29.316Z,14.80
2018-11-14T02:10:57.477Z,15.40
2018-11-14T02:13:26.420Z,16.10
2018-11-14T02:15:54.609Z,15.10
2018-11-14T02:18:22.749Z,16.33
2018-11-14T02:20:50.900Z,15.63
2018-11-14T02:23:19.070Z,15.47
2018-11-14T02:25:47.221Z,16.07
2018-11-14T02:28:15.379Z,14.57
2018-11-14T02:30:43.550Z,16.13
2018-11-14T02:33:11.692Z,15.53
2018-11-14T02:35:40.299Z,15.87
2018-11-14T02:38:08.445Z,15.97
2018-11-14T02:40:36.603Z,16.90
2018-11-14T02:43:05.142Z,17.40
2018-11-14T02:45:33.399Z,17.33
2018-11-14T02:48:01.550Z,16.67
2018-11-14T02:50:29.714Z,18.17
2018-11-14T02:52:57.916Z,18.60
2018-11-14T02:55:26.112Z,17.73
2018-11-14T02:57:54.241Z,17.67
2018-11-14T03:00:22.640Z,18.57
2018-11-14T03:02:50.820Z,18.00
2018-11-14T03:05:18.961Z,17.80
2018-11-14T03:07:47.168Z,17.27
2018-11-14T03:10:18.055Z,18.57
2018-11-14T03:12:46.289Z,18.40
2018-11-14T03:15:16.320Z,17.87
2018-11-14T03:17:44.471Z,17.87
2018-11-14T03:20:15.093Z,18.50
2018-11-14T03:22:43.309Z,18.37
2018-11-14T03:25:12.579Z,17.63
2018-11-14T03:27:40.714Z,18.57
2018-11-14T03:30:10.154Z,18.97
2018-11-14T03:32:38.530Z,18.90
2018-11-14T03:35:07.039Z,18.43
2018-11-14T03:37:35.390Z,19.53
2018-11-14T03:40:03.636Z,18.43
2018-11-14T03:42:31.792Z,17.87
2018-11-14T03:44:59.948Z,17.33
2018-11-14T03:47:28.127Z,18.20
2018-11-14T03:49:56.266Z,17.90
2018-11-14T03:52:24.439Z,18.00
2018-11-14T03:54:52.585Z,16.93
2018-11-14T03:57:20.764Z,18.47
2018-11-14T03:59:48.899Z,18.73
2018-11-14T04:02:17.060Z,18.80
2018-11-14T04:04:45.196Z,17.07
2018-11-14T04:07:13.341Z,16.27
2018-11-14T04:09:41.498Z,19.13
2018-11-14T04:12:09.620Z,19.30
2018-11-14T04:14:37.757Z,17.77
2018-11-14T04:17:05.901Z,20.37
2018-11-14T04:19:34.044Z,20.03
2018-11-14T04:22:02.252Z,20.50
2018-11-14T04:24:30.438Z,19.07
2018-11-14T04:26:58.610Z,19.77
2018-11-14T04:29:26.761Z,19.57
2018-11-14T04:31:54.925Z,18.13
2018-11-14T04:34:23.065Z,19.50
2018-11-14T04:36:51.229Z,19.70
2018-11-14T04:39:19.644Z,19.47
2018-11-14T04:41:47.816Z,20.70
2018-11-14T04:44:15.964Z,20.10
2018-11-14T04:46:44.096Z,19.87
2018-11-14T04:49:12.289Z,24.40
2018-11-14T04:51:40.452Z,20.10
2018-11-14T04:54:08.627Z,19.07
2018-11-14T04:56:36.790Z,20.30
2018-11-14T04:59:04.993Z,20.00
2018-11-14T05:01:33.138Z,20.23
2018-11-14T05:04:01.298Z,18.97
2018-11-14T05:06:29.435Z,18.20
2018-11-14T05:08:57.638Z,18.10
2018-11-14T05:11:25.828Z,17.57
2018-11-14T05:13:53.984Z,17.93
2018-11-14T05:16:22.368Z,19.57
2018-11-14T05:18:50.529Z,18.47
2018-11-14T05:21:18.683Z,19.20
2018-11-14T05:23:46.827Z,25.30
2018-11-14T05:26:14.967Z,19.15
2018-11-14T05:28:43.108Z,22.20
2018-11-14T05:31:11.344Z,19.37
2018-11-14T05:33:39.495Z,17.67
2018-11-14T05:36:07.634Z,18.40
2018-11-14T05:38:35.793Z,19.07
2018-11-14T05:41:03.935Z,18.10
2018-11-14T05:43:32.077Z,17.67
2018-11-14T05:46:00.228Z,18.33
2018-11-14T05:48:28.428Z,18.87
2018-11-14T05:50:56.571Z,18.47
2018-11-14T05:53:24.745Z,18.80
2018-11-14T05:55:52.899Z,18.50
2018-11-14T05:58:21.081Z,19.47
2018-11-14T06:00:49.215Z,19.53
2018-11-14T06:03:17.352Z,20.07
2018-11-14T06:05:45.505Z,20.13
2018-11-14T06:08:13.644Z,18.63
2018-11-14T06:10:41.846Z,18.07
2018-11-14T06:13:09.976Z,18.90
2018-11-14T06:15:38.131Z,18.63
2018-11-14T06:18:06.272Z,19.63
2018-11-14T06:20:34.452Z,19.50
2018-11-14T06:23:02.589Z,19.03
2018-11-14T06:25:33.927Z,20.33
2018-11-14T06:28:03.836Z,20.87
2018-11-14T06:30:32.509Z,18.70
2018-11-14T06:33:01.325Z,19.30
2018-11-14T06:35:29.469Z,19.40
2018-11-14T06:37:57.864Z,19.03
2018-11-14T06:40:26.112Z,17.43
2018-11-14T06:42:54.268Z,17.30
2018-11-14T06:45:23.625Z,17.07
2018-11-14T06:47:53.036Z,18.07
2018-11-14T06:50:21.195Z,18.17
2018-11-14T06:52:50.379Z,18.73
2018-11-14T06:55:19.192Z,17.67
2018-11-14T06:57:47.351Z,18.90
2018-11-14T07:00:24.040Z,18.97
2018-11-14T07:02:52.556Z,19.10
2018-11-14T07:05:20.743Z,18.53
2018-11-14T07:07:48.999Z,17.97
2018-11-14T07:10:19.707Z,17.27
2018-11-14T07:12:47.868Z,16.00
2018-11-14T07:15:21.268Z,15.43
2018-11-14T07:17:50.288Z,15.67
2018-11-14T07:20:21.421Z,15.90
2018-11-14T07:22:49.580Z,15.17
2018-11-14T07:25:17.847Z,13.73
2018-11-14T07:27:46.355Z,13.97
2018-11-14T07:30:16.364Z,14.90
2018-11-14T07:32:45.898Z,13.83
2018-11-14T07:35:14.948Z,13.47
2018-11-14T07:37:45.670Z,14.30
2018-11-14T07:40:14.171Z,13.03
2018-11-14T07:42:42.976Z,11.07
2018-11-14T07:45:14.027Z,9.63
2018-11-14T07:47:42.904Z,8.65
2018-11-14T07:50:13.371Z,7.97
2018-11-14T07:52:42.181Z,6.97
2018-11-14T07:55:11.705Z,6.10
2018-11-14T07:57:40.385Z,6.72
2018-11-14T08:00:13.389Z,5.83
2018-11-14T08:02:41.946Z,6.30
2018-11-14T08:05:10.049Z,5.22
2018-11-14T08:07:38.561Z,5.87
2018-11-14T08:10:09.005Z,5.15
2018-11-14T08:12:37.522Z,4.90
2018-11-14T08:15:07.004Z,5.00
2018-11-14T08:17:35.401Z,4.45
2018-11-14T08:20:04.116Z,4.97
2018-11-14T08:22:32.553Z,4.67
2018-11-14T08:25:01.027Z,4.53
2018-11-14T08:27:29.387Z,4.40
2018-11-14T08:29:57.917Z,4.28
2018-11-14T08:32:26.293Z,4.42
2018-11-14T08:34:55.148Z,4.67
2018-11-14T08:37:23.668Z,4.10
2018-11-14T08:39:52.073Z,4.08
2018-11-14T08:42:20.448Z,3.50
2018-11-14T08:44:48.856Z,3.95
2018-11-14T08:47:17.254Z,4.20
2018-11-14T08:49:45.619Z,4.30
2018-11-14T08:52:14.281Z,4.03
2018-11-14T08:54:42.685Z,3.80
2018-11-14T08:57:11.061Z,4.20
2018-11-14T08:59:39.489Z,3.50
2018-11-14T09:02:07.910Z,4.00
2018-11-14T09:04:37.034Z,4.25
2018-11-14T09:07:05.842Z,3.98
2018-11-14T09:09:34.316Z,3.62
2018-11-14T09:12:02.697Z,4.00
2018-11-14T09:14:31.196Z,4.42
2018-11-14T09:16:59.578Z,3.90
2018-11-14T09:19:27.976Z,4.10
2018-11-14T09:21:56.540Z,4.12
2018-11-14T09:24:25.041Z,3.98
2018-11-14T09:26:54.139Z,4.47
2018-11-14T09:29:22.629Z,4.00
2018-11-14T09:31:51.033Z,4.10
2018-11-14T09:34:19.574Z,4.50
2018-11-14T09:36:47.954Z,4.15
2018-11-14T09:39:16.345Z,4.40
2018-11-14T09:41:44.753Z,4.70
2018-11-14T09:44:13.125Z,4.00
2018-11-14T09:46:42.181Z,3.42
2018-11-14T09:49:10.805Z,3.17
2018-11-14T09:51:38.878Z,3.50
2018-11-14T09:54:07.543Z,2.95
2018-11-14T09:56:36.112Z,3.08
2018-11-14T09:59:04.616Z,3.80
2018-11-14T10:01:33.036Z,3.22
2018-11-14T10:04:02.420Z,3.08
2018-11-14T10:06:30.878Z,3.42
2018-11-14T10:08:59.295Z,3.22
2018-11-14T10:11:27.676Z,3.20
2018-11-14T10:13:56.217Z,3.27
2018-11-14T10:16:24.617Z,3.10
2018-11-14T10:18:53.082Z,2.98
2018-11-14T10:21:21.568Z,2.90
2018-11-14T10:23:49.880Z,2.80
2018-11-14T10:26:18.268Z,3.00
2018-11-14T10:28:46.696Z,3.08
2018-11-14T10:31:15.302Z,2.47
2018-11-14T10:33:43.838Z,3.30
2018-11-14T10:36:12.226Z,2.72
2018-11-14T10:38:40.679Z,3.00
2018-11-14T10:41:09.082Z,3.10
2018-11-14T10:43:37.502Z,2.62
2018-11-14T10:46:06.225Z,2.50
2018-11-14T10:48:34.361Z,2.72
2018-11-14T10:51:02.879Z,2.72
2018-11-14T10:53:31.324Z,2.52
2018-11-14T10:55:59.757Z,2.42
2018-11-14T10:58:28.372Z,2.37
2018-11-14T11:01:01.937Z,2.40
2018-11-14T11:04:33.693Z,2.42
2018-11-14T11:07:07.994Z,2.17
2018-11-14T11:09:41.803Z,2.00
2018-11-14T11:12:15.520Z,2.40
2018-11-14T11:14:50.070Z,2.47
2018-11-14T11:17:23.917Z,2.50
2018-11-14T11:19:52.308Z,2.05
2018-11-14T11:22:20.685Z,2.15
2018-11-14T11:24:49.373Z,2.35
2018-11-14T11:27:17.801Z,1.92
2018-11-14T11:29:46.193Z,2.00
2018-11-14T11:32:14.581Z,2.42
2018-11-14T11:34:43.005Z,2.70
2018-11-14T11:37:11.512Z,2.25
2018-11-14T11:39:40.162Z,2.17
2018-11-14T11:42:08.560Z,2.30
2018-11-14T11:44:37.086Z,2.05
2018-11-14T11:47:05.549Z,2.77
2018-11-14T11:49:34.025Z,2.50
2018-11-14T11:52:02.514Z,2.30
2018-11-14T11:54:30.959Z,2.00
2018-11-14T11:56:59.495Z,2.50
2018-11-14T11:59:27.907Z,1.95
2018-11-14T12:01:56.876Z,2.00
2018-11-14T12:04:25.320Z,1.98
2018-11-14T12:06:53.813Z,1.80
2018-11-14T12:09:22.787Z,2.15
2018-11-14T12:11:51.209Z,1.67
2018-11-14T12:14:19.458Z,2.30
2018-11-14T12:16:48.833Z,1.98
2018-11-14T12:19:17.356Z,2.20
2018-11-14T12:21:45.632Z,1.70
2018-11-14T12:24:14.039Z,1.90
2018-11-14T12:26:42.720Z,1.82
2018-11-14T12:29:11.150Z,1.92
2018-11-14T12:31:40.049Z,2.70
2018-11-14T12:34:08.569Z,1.87
2018-11-14T12:36:36.937Z,2.40
2018-11-14T12:39:07.804Z,2.22
2018-11-14T12:41:36.326Z,2.10
2018-11-14T12:44:04.925Z,2.10
2018-11-14T12:46:33.392Z,1.92
2018-11-14T12:49:01.912Z,1.65
2018-11-14T12:51:30.308Z,2.27
2018-11-14T12:53:58.760Z,1.90
2018-11-14T12:56:27.171Z,1.82
2018-11-14T12:58:55.710Z,2.20
2018-11-14T13:01:24.123Z,1.90
2018-11-14T13:03:52.525Z,2.27
2018-11-14T13:06:20.933Z,2.08
2018-11-14T13:08:49.422Z,1.55
2018-11-14T13:11:17.940Z,1.67
2018-11-14T13:13:47.428Z,1.98
2018-11-14T13:16:16.740Z,1.60
2018-11-14T13:18:45.428Z,2.10
2018-11-14T13:21:14.218Z,1.77
2018-11-14T13:23:43.221Z,1.60
2018-11-14T13:26:11.777Z,2.17
2018-11-14T13:28:40.793Z,1.45
2018-11-14T13:31:09.250Z,2.30
2018-11-14T13:33:37.770Z,1.77
2018-11-14T13:36:06.328Z,1.80
2018-11-14T13:38:34.801Z,1.95
2018-11-14T13:41:03.181Z,1.72
2018-11-14T13:43:31.605Z,1.50
2018-11-14T13:46:00.040Z,1.90
2018-11-14T13:48:28.440Z,1.92
2018-11-14T13:50:57.004Z,1.70
2018-11-14T13:53:25.786Z,1.85
2018-11-14T13:55:54.255Z,1.72
2018-11-14T13:58:22.648Z,1.75
2018-11-14T14:00:51.053Z,1.62
2018-11-14T14:03:19.582Z,1.70
2018-11-14T14:05:47.961Z,1.67
2018-11-14T14:08:16.488Z,1.60
2018-11-14T14:10:44.956Z,1.57
2018-11-14T14:13:13.447Z,1.62
2018-11-14T14:15:41.945Z,1.62
2018-11-14T14:18:10.448Z,1.90
2018-11-14T14:20:38.862Z,1.20
2018-11-14T14:23:07.286Z,1.80
2018-11-14T14:25:35.681Z,1.45
2018-11-14T14:28:04.117Z,1.60
2018-11-14T14:30:32.620Z,1.45
2018-11-14T14:33:01.677Z,1.65
2018-11-14T14:35:30.185Z,1.50
2018-11-14T14:37:59.342Z,1.70
2018-11-14T14:40:27.912Z,1.98
2018-11-14T14:42:56.360Z,2.15
2018-11-14T14:45:26.063Z,1.70
2018-11-14T14:47:54.484Z,1.60
2018-11-14T14:50:22.933Z,1.90
2018-11-14T14:52:51.415Z,1.65
2018-11-14T14:55:21.829Z,1.17
2018-11-14T14:57:50.592Z,1.50
2018-11-14T15:00:20.966Z,1.50
2018-11-14T15:02:49.561Z,1.77
2018-11-14T15:05:17.993Z,1.72
2018-11-14T15:07:46.569Z,1.82
2018-11-14T15:10:17.291Z,1.70
2018-11-14T15:12:45.897Z,1.65
2018-11-14T15:15:14.936Z,1.40
2018-11-14T15:17:43.718Z,1.72
2018-11-14T15:20:16.321Z,1.75
2018-11-14T15:22:44.909Z,2.00
2018-11-14T15:25:16.873Z,1.90
2018-11-14T15:27:46.165Z,1.72
2018-11-14T15:30:20.362Z,2.42
2018-11-14T15:32:49.475Z,1.55
2018-11-14T15:35:18.330Z,1.98
2018-11-14T15:37:47.145Z,2.00
2018-11-14T15:40:16.834Z,1.70
2018-11-14T15:42:45.374Z,1.92
2018-11-14T15:45:22.825Z,2.17
2018-11-14T15:47:51.449Z,1.80
2018-11-14T15:50:22.302Z,1.90
2018-11-14T15:52:51.764Z,1.90
2018-11-14T15:55:20.856Z,1.90
2018-11-14T15:57:49.339Z,1.90
2018-11-14T16:00:33.935Z,2.15
2018-11-14T16:03:02.910Z,2.10
2018-11-14T16:05:32.518Z,1.85
2018-11-14T16:08:02.190Z,2.52
2018-11-14T16:10:31.507Z,2.47
2018-11-14T16:13:00.521Z,2.37
2018-11-14T16:15:30.650Z,2.33
2018-11-14T16:17:59.335Z,2.30
2018-11-14T16:20:28.107Z,2.80
2018-11-14T16:22:56.604Z,2.90
2018-11-14T16:25:25.953Z,2.72
2018-11-14T16:27:56.918Z,2.47
2018-11-14T16:30:33.304Z,1.70
2018-11-14T16:33:03.210Z,2.57
2018-11-14T16:35:32.017Z,1.90
2018-11-14T16:38:03.492Z,8.75
2018-11-14T16:40:33.248Z,4.53
2018-11-14T16:43:03.276Z,2.42
2018-11-14T16:45:31.772Z,2.37
2018-11-14T16:48:00.380Z,2.47
2018-11-14T16:50:28.910Z,2.25
2018-11-14T16:52:57.578Z,2.85
2018-11-14T16:55:26.632Z,3.25
2018-11-14T16:57:55.873Z,3.27
2018-11-14T17:00:25.638Z,2.90
2018-11-14T17:02:54.238Z,3.58
2018-11-14T17:05:23.429Z,3.60
2018-11-14T17:07:51.874Z,3.30
2018-11-14T17:10:21.257Z,2.72
2018-11-14T17:12:52.021Z,5.15
2018-11-14T17:15:24.933Z,5.70
2018-11-14T17:17:53.488Z,5.50
2018-11-14T17:20:23.107Z,5.30
2018-11-14T17:22:52.813Z,7.28
2018-11-14T17:25:21.477Z,6.78
2018-11-14T17:27:50.253Z,6.45
2018-11-14T17:30:20.208Z,6.70
2018-11-14T17:32:48.754Z,6.03
2018-11-14T17:35:17.580Z,5.67
2018-11-14T17:37:46.654Z,6.80
2018-11-14T17:40:18.592Z,8.68
2018-11-14T17:42:47.936Z,5.35
2018-11-14T17:45:20.031Z,5.20
2018-11-14T17:47:49.598Z,5.62
2018-11-14T17:50:19.929Z,4.45
2018-11-14T17:52:49.495Z,3.85
2018-11-14T17:55:18.527Z,5.93
2018-11-14T17:57:46.964Z,3.87
2018-11-14T18:00:16.873Z,4.07
2018-11-14T18:02:45.762Z,4.25
2018-11-14T18:05:17.165Z,4.23
2018-11-14T18:07:46.465Z,3.93
2018-11-14T18:10:16.527Z,4.25
2018-11-14T18:12:46.636Z,6.33
2018-11-14T18:15:15.201Z,5.23
2018-11-14T18:17:43.992Z,4.90
2018-11-14T18:20:14.241Z,5.60
2018-11-14T18:22:43.524Z,5.20
2018-11-14T18:25:12.393Z,4.77
2018-11-14T18:27:40.856Z,5.40
2018-11-14T18:30:12.972Z,5.47
2018-11-14T18:32:41.740Z,5.97
2018-11-14T18:35:12.362Z,6.03
2018-11-14T18:37:41.474Z,6.43
2018-11-14T18:40:12.594Z,6.37
2018-11-14T18:42:41.818Z,6.87
2018-11-14T18:45:19.991Z,6.30
2018-11-14T18:47:49.212Z,6.40
2018-11-14T18:50:18.529Z,6.75
2018-11-14T18:52:47.594Z,7.30
2018-11-14T18:55:17.432Z,6.67
2018-11-14T18:57:46.300Z,7.83
2018-11-14T19:00:17.068Z,7.30
2018-11-14T19:02:46.570Z,7.00
2018-11-14T19:05:15.735Z,7.30
2018-11-14T19:07:44.455Z,7.63
2018-11-14T19:10:15.661Z,7.80
2018-11-14T19:12:45.048Z,8.77
2018-11-14T19:15:17.465Z,8.53
2018-11-14T19:17:46.041Z,10.00
2018-11-14T19:20:15.761Z,10.53
2018-11-14T19:22:44.651Z,10.03
2018-11-14T19:25:14.558Z,11.50
2018-11-14T19:27:43.958Z,11.73
2018-11-14T19:30:19.601Z,12.27
2018-11-14T19:32:49.365Z,12.27
2018-11-14T19:35:18.121Z,13.00
2018-11-14T19:37:47.849Z,12.33
2018-11-14T19:40:17.644Z,11.93
2018-11-14T19:42:46.943Z,12.60
2018-11-14T19:45:17.691Z,12.63
2018-11-14T19:47:46.142Z,11.73
2018-11-14T19:50:15.767Z,12.27
2018-11-14T19:52:44.669Z,12.83
2018-11-14T19:55:14.362Z,12.23
2018-11-14T19:57:43.997Z,12.10
2018-11-14T20:00:15.747Z,12.07
2018-11-14T20:02:44.297Z,13.07
2018-11-14T20:05:13.897Z,13.40
2018-11-14T20:07:42.376Z,13.00
2018-11-14T20:10:13.891Z,12.87
2018-11-14T20:12:42.317Z,13.03
2018-11-14T20:15:12.800Z,13.63
2018-11-14T20:17:42.299Z,14.00
2018-11-14T20:20:12.925Z,13.90
2018-11-14T20:22:41.810Z,13.63
2018-11-14T20:25:10.284Z,14.17
2018-11-14T20:27:39.312Z,15.23
2018-11-14T20:30:15.095Z,15.47
2018-11-14T20:32:43.529Z,14.90
2018-11-14T20:35:13.357Z,15.13
2018-11-14T20:37:41.915Z,14.83
2018-11-14T20:40:12.442Z,15.30
2018-11-14T20:42:41.039Z,14.93
2018-11-14T20:45:12.616Z,14.17
2018-11-14T20:47:41.116Z,15.20
2018-11-14T20:50:12.959Z,15.53
2018-11-14T20:52:41.558Z,15.43
2018-11-14T20:55:10.668Z,15.40
2018-11-14T20:57:39.894Z,15.57
2018-11-14T21:00:10.677Z,15.63
2018-11-14T21:02:39.628Z,14.70
2018-11-14T21:05:09.644Z,15.47
2018-11-14T21:07:38.108Z,15.90
2018-11-14T21:10:08.732Z,15.20
2018-11-14T21:12:37.394Z,15.77
2018-11-14T21:15:06.120Z,15.90
2018-11-14T21:17:35.199Z,14.83
2018-11-14T21:20:04.849Z,15.70
2018-11-14T21:22:33.293Z,14.30
2018-11-14T21:25:01.778Z,15.13
2018-11-14T21:27:30.253Z,15.33
2018-11-14T21:29:58.967Z,15.47
2018-11-14T21:32:27.955Z,14.37
2018-11-14T21:34:56.404Z,14.73
2018-11-14T21:37:25.590Z,14.67
2018-11-14T21:39:54.030Z,13.93
2018-11-14T21:42:22.601Z,15.43
2018-11-14T21:44:52.397Z,15.70
2018-11-14T21:47:25.194Z,15.63
2018-11-14T21:49:53.684Z,15.03
2018-11-14T21:52:22.081Z,14.57
2018-11-14T21:54:50.850Z,14.40
2018-11-14T21:57:19.957Z,13.63
2018-11-14T21:59:48.405Z,13.63
2018-11-14T22:02:16.957Z,14.97
2018-11-14T22:04:45.515Z,14.50
2018-11-14T22:07:13.944Z,14.43
2018-11-14T22:09:42.546Z,14.23
2018-11-14T22:12:11.002Z,14.40
2018-11-14T22:14:39.496Z,14.77
2018-11-14T22:17:07.872Z,15.13
2018-11-14T22:19:36.312Z,15.20
2018-11-14T22:22:05.038Z,15.03
2018-11-14T22:24:33.513Z,15.43
2018-11-14T22:27:01.992Z,14.10
2018-11-14T22:32:03.089Z,14.60
2018-11-14T22:34:31.582Z,14.83
2018-11-14T22:37:00.025Z,14.97
2018-11-14T22:39:28.441Z,14.90
2018-11-14T22:41:56.965Z,15.40
2018-11-14T22:44:25.378Z,14.60
2018-11-14T22:46:54.169Z,14.47
2018-11-14T22:49:22.575Z,14.33
2018-11-14T22:51:50.955Z,14.00
2018-11-14T22:54:19.379Z,14.80
2018-11-14T22:56:47.989Z,13.93
2018-11-14T22:59:16.949Z,14.40
2018-11-14T23:01:45.448Z,15.20
2018-11-14T23:04:13.912Z,14.70
2018-11-14T23:06:43.018Z,15.27
2018-11-14T23:09:12.872Z,15.47
2018-11-14T23:11:41.746Z,14.50
2018-11-14T23:14:10.224Z,15.80
2018-11-14T23:16:38.686Z,15.50
2018-11-14T23:19:07.172Z,15.60
2018-11-14T23:21:35.887Z,15.40
2018-11-14T23:24:04.337Z,15.50
2018-11-14T23:26:32.753Z,14.20
2018-11-14T23:29:01.616Z,14.90
2018-11-14T23:31:30.220Z,13.80
2018-11-14T23:33:59.005Z,14.40
2018-11-14T23:36:27.402Z,14.63
2018-11-14T23:38:55.834Z,15.03
2018-11-14T23:41:24.196Z,14.70
2018-11-14T23:43:52.584Z,14.80
2018-11-14T23:46:21.567Z,13.83
2018-11-14T23:48:50.028Z,13.70
2018-11-14T23:51:18.545Z,13.40
2018-11-14T23:53:46.935Z,13.70
2018-11-14T23:56:15.932Z,14.27
2018-11-14T23:58:44.413Z,14.27
